Time;durP1;ratioP1;P1;durP2;ratioP2;P2;SDS_P1;SDS_P2;PMS_P1;PMS_P2;Temp;Humidity;BMP_temperature;BMP_pressure;BME280_temperature;BME280_humidity;BME280_pressure;Samples;Min_cycle;Max_cycle;Signal;HPM_P1;HPM_P2
2022/07/19 00:00:20;;;;;;;0.00;0.00;;;;;;;16.32;69.83;98650.44;5037618;28;20045;-65
2022/07/19 00:02:48;;;;;;;0.00;0.00;;;;;;;16.37;69.44;98656.25;5037538;28;20057;-64
2022/07/19 00:05:16;;;;;;;0.00;0.00;;;;;;;16.44;68.93;98654.78;5037413;28;20037;-64
2022/07/19 00:07:46;;;;;;;0.00;0.00;;;;;;;16.43;68.95;98659.28;5037688;28;20060;-64
2022/07/19 00:10:15;;;;;;;0.00;0.00;;;;;;;16.48;68.79;98661.59;5037282;28;20061;-64
2022/07/19 00:12:43;;;;;;;0.00;0.00;;;;;;;16.51;68.63;98661.31;5037683;28;20037;-64
2022/07/19 00:15:14;;;;;;;0.00;0.00;;;;;;;16.53;68.46;98659.41;5037257;28;20472;-64
2022/07/19 00:17:43;;;;;;;0.00;0.00;;;;;;;16.53;68.65;98656.75;5037343;28;20041;-64
2022/07/19 00:20:13;;;;;;;0.00;0.00;;;;;;;16.56;68.65;98659.16;5037226;28;20050;-64
2022/07/19 00:22:41;;;;;;;0.00;0.00;;;;;;;16.59;68.52;98662.41;5037374;28;20048;-64
2022/07/19 00:25:10;;;;;;;0.00;0.00;;;;;;;16.59;68.42;98658.94;5036977;28;20080;-64
2022/07/19 00:27:38;;;;;;;0.00;0.00;;;;;;;16.63;68.26;98660.38;5037075;28;20132;-64
2022/07/19 00:30:07;;;;;;;0.00;0.00;;;;;;;16.67;68.11;98653.84;5037216;28;20433;-64
2022/07/19 00:32:35;;;;;;;0.00;0.00;;;;;;;16.70;67.67;98651.78;5037093;28;20041;-64
2022/07/19 00:35:02;;;;;;;0.00;0.00;;;;;;;16.74;67.37;98653.22;5037235;28;20057;-64
2022/07/19 00:37:30;;;;;;;0.00;0.00;;;;;;;16.77;67.58;98657.44;5036898;28;20057;-64
2022/07/19 00:39:57;;;;;;;0.00;0.00;;;;;;;16.81;66.85;98654.44;5036840;28;20041;-64
2022/07/19 00:42:26;;;;;;;0.00;0.00;;;;;;;16.83;66.96;98655.19;5036045;28;20148;-64
2022/07/19 00:44:53;;;;;;;0.00;0.00;;;;;;;16.85;66.87;98647.91;5036978;28;20425;-64
2022/07/19 00:47:21;;;;;;;0.00;0.00;;;;;;;16.84;67.54;98648.88;5036933;28;20050;-64
2022/07/19 00:49:49;;;;;;;0.00;0.00;;;;;;;16.84;67.39;98643.56;5037343;28;20053;-64
2022/07/19 00:52:19;;;;;;;0.00;0.00;;;;;;;16.88;67.22;98644.16;5036774;28;20045;-64
2022/07/19 00:54:48;;;;;;;0.00;0.00;;;;;;;16.92;66.83;98649.09;5036767;28;20130;-64
2022/07/19 00:57:16;;;;;;;0.00;0.00;;;;;;;16.97;66.69;98648.78;5036773;28;20041;-64
2022/07/19 00:59:47;;;;;;;0.00;0.00;;;;;;;16.96;66.65;98641.78;5036953;28;20426;-64
2022/07/19 01:02:15;;;;;;;0.00;0.00;;;;;;;16.96;66.44;98644.44;5036789;28;20046;-64
2022/07/19 01:04:42;;;;;;;0.00;0.00;;;;;;;16.95;66.38;98642.72;5036633;28;20037;-65
2022/07/19 01:07:10;;;;;;;0.00;0.00;;;;;;;16.91;66.54;98644.78;5036560;28;20060;-64
2022/07/19 01:09:38;;;;;;;0.00;0.00;;;;;;;16.94;66.53;98641.00;5036795;28;20333;-64
2022/07/19 01:12:08;;;;;;;0.00;0.00;;;;;;;16.95;66.37;98640.06;5036465;28;20137;-64
2022/07/19 01:14:36;;;;;;;0.00;0.00;;;;;;;17.00;65.88;98641.41;5036508;28;20096;-64
2022/07/19 01:17:05;;;;;;;0.00;0.00;;;;;;;17.03;66.21;98633.19;5036490;28;20053;-64
2022/07/19 01:19:34;;;;;;;0.00;0.00;;;;;;;17.02;65.87;98641.28;5036708;28;20050;-64
2022/07/19 01:22:02;;;;;;;0.00;0.00;;;;;;;17.02;66.15;98643.94;5036590;28;20049;-64
2022/07/19 01:24:30;;;;;;;0.00;0.00;;;;;;;16.97;66.13;98638.16;5036345;28;20128;-64
2022/07/19 01:26:58;;;;;;;0.00;0.00;;;;;;;16.97;65.72;98638.16;5036892;28;20417;-64
2022/07/19 01:29:25;;;;;;;0.00;0.00;;;;;;;17.00;65.59;98640.56;5036450;28;20041;-63
2022/07/19 01:31:53;;;;;;;0.00;0.00;;;;;;;17.01;65.41;98642.25;5036214;28;20128;-64
2022/07/19 01:34:20;;;;;;;0.00;0.00;;;;;;;17.00;65.76;98637.91;5036355;28;20037;-64
2022/07/19 01:36:48;;;;;;;0.00;0.00;;;;;;;16.95;66.03;98640.94;5036599;28;20045;-64
2022/07/19 01:39:17;;;;;;;0.00;0.00;;;;;;;16.89;66.14;98643.22;5036331;28;20050;-64
2022/07/19 01:41:44;;;;;;;0.00;0.00;;;;;;;16.87;66.45;98643.31;5036208;28;20038;-64
2022/07/19 01:44:11;;;;;;;0.00;0.00;;;;;;;16.83;66.56;98641.03;5036277;28;20041;-64
2022/07/19 01:46:39;;;;;;;0.00;0.00;;;;;;;16.78;66.55;98641.38;5036199;28;20046;-64
2022/07/19 01:49:06;;;;;;;0.00;0.00;;;;;;;16.81;66.42;98640.28;5036505;28;20453;-64
2022/07/19 01:51:34;;;;;;;0.00;0.00;;;;;;;16.75;66.74;98640.81;5036292;28;20052;-65
2022/07/19 01:54:01;;;;;;;0.00;0.00;;;;;;;16.68;66.98;98632.47;5039447;28;20041;-64
2022/07/19 01:56:30;;;;;;;0.00;0.00;;;;;;;16.66;66.95;98636.19;5039865;28;20041;-64
2022/07/19 01:58:58;;;;;;;0.00;0.00;;;;;;;16.58;67.40;98642.13;5040022;28;20069;-64
2022/07/19 02:01:25;;;;;;;0.00;0.00;;;;;;;16.59;67.10;98640.34;5039864;28;20045;-64
2022/07/19 02:03:53;;;;;;;0.00;0.00;;;;;;;16.56;67.58;98633.41;5039814;28;20132;-64
2022/07/19 02:06:21;;;;;;;0.00;0.00;;;;;;;16.57;67.54;98639.59;5039783;28;20045;-64
2022/07/19 02:08:49;;;;;;;0.00;0.00;;;;;;;16.55;67.27;98636.19;5039768;28;20049;-64
2022/07/19 02:14:03;;;;;;;0.00;0.00;;;;;;;16.50;67.71;98636.59;5039897;28;20428;-64
2022/07/19 02:16:30;;;;;;;0.00;0.00;;;;;;;16.46;68.12;98636.94;5039937;28;20037;-63
2022/07/19 02:18:58;;;;;;;0.00;0.00;;;;;;;16.45;68.01;98641.38;5039600;28;20046;-64
2022/07/19 02:21:25;;;;;;;0.00;0.00;;;;;;;16.43;68.29;98637.16;5039578;28;20045;-64
2022/07/19 02:23:53;;;;;;;0.00;0.00;;;;;;;16.43;68.42;98650.44;5039404;28;20033;-65
2022/07/19 02:26:20;;;;;;;0.00;0.00;;;;;;;16.42;68.32;98646.13;5039408;28;20053;-63
2022/07/19 02:28:47;;;;;;;0.00;0.00;;;;;;;16.44;68.22;98650.34;5039531;28;20049;-64
2022/07/19 02:31:17;;;;;;;0.00;0.00;;;;;;;16.44;68.51;98652.13;5039187;28;20125;-64
2022/07/19 02:33:44;;;;;;;0.00;0.00;;;;;;;16.44;68.38;98644.16;5039490;28;20053;-64
2022/07/19 02:36:12;;;;;;;0.00;0.00;;;;;;;16.44;68.63;98647.69;5039162;28;20041;-64
2022/07/19 02:38:40;;;;;;;0.00;0.00;;;;;;;16.47;68.13;98634.16;5039096;28;20046;-64
2022/07/19 02:41:08;;;;;;;0.00;0.00;;;;;;;16.52;68.28;98636.47;5039159;28;20398;-64
2022/07/19 02:43:35;;;;;;;0.00;0.00;;;;;;;16.53;68.05;98638.16;5039015;28;20046;-64
2022/07/19 02:46:03;;;;;;;0.00;0.00;;;;;;;16.49;68.74;98642.00;5038984;28;20056;-64
2022/07/19 02:48:32;;;;;;;0.00;0.00;;;;;;;16.48;68.51;98632.38;5038891;28;20117;-64
2022/07/19 02:50:59;;;;;;;0.00;0.00;;;;;;;16.44;68.69;98631.75;5038809;28;20100;-64
2022/07/19 02:53:27;;;;;;;0.00;0.00;;;;;;;16.42;68.91;98636.34;5038858;28;20073;-64
2022/07/19 02:55:54;;;;;;;0.00;0.00;;;;;;;16.41;69.16;98636.47;5039120;28;20060;-64
2022/07/19 02:58:22;;;;;;;0.00;0.00;;;;;;;16.38;69.13;98640.19;5038949;28;20053;-64
2022/07/19 03:00:49;;;;;;;0.00;0.00;;;;;;;16.38;69.26;98629.56;5038713;28;20099;-64
2022/07/19 03:05:59;;;;;;;0.00;0.00;;;;;;;16.39;69.37;98636.59;5025451;28;20141;-64
2022/07/19 03:08:27;;;;;;;0.00;0.00;;;;;;;16.38;69.27;98636.69;5038662;28;20099;-64
2022/07/19 03:10:54;;;;;;;0.00;0.00;;;;;;;16.42;68.98;98635.50;5038499;28;20045;-64
2022/07/19 03:13:21;;;;;;;0.00;0.00;;;;;;;16.43;69.36;98631.84;5038752;28;20175;-64
2022/07/19 03:15:49;;;;;;;0.00;0.00;;;;;;;16.50;68.94;98643.69;5038435;28;20059;-63
2022/07/19 03:18:17;;;;;;;0.00;0.00;;;;;;;16.54;68.82;98647.81;5038598;28;20042;-64
2022/07/19 03:20:44;;;;;;;0.00;0.00;;;;;;;16.56;68.92;98645.88;5038364;28;20519;-63
2022/07/19 03:23:13;;;;;;;0.00;0.00;;;;;;;16.57;68.91;98652.88;5038223;28;20037;-64
2022/07/19 03:25:41;;;;;;;0.00;0.00;;;;;;;16.58;68.87;98651.91;5038076;28;20053;-64
2022/07/19 03:28:08;;;;;;;0.00;0.00;;;;;;;16.59;69.10;98653.63;5038240;28;20049;-64
2022/07/19 03:30:36;;;;;;;0.00;0.00;;;;;;;16.59;69.36;98656.28;5036939;28;20381;-64
2022/07/19 03:33:03;;;;;;;0.00;0.00;;;;;;;16.56;69.39;98660.00;5038018;28;20041;-64
2022/07/19 03:35:31;;;;;;;0.00;0.00;;;;;;;16.56;69.84;98653.84;5037976;28;20045;-64
2022/07/19 03:37:58;;;;;;;0.00;0.00;;;;;;;16.56;70.00;98659.16;5038047;28;20471;-64
2022/07/19 03:40:27;;;;;;;0.00;0.00;;;;;;;16.54;70.07;98663.75;5037938;28;20132;-64
2022/07/19 03:42:55;;;;;;;0.00;0.00;;;;;;;16.56;70.15;98659.16;5037967;28;20053;-64
2022/07/19 03:45:22;;;;;;;0.00;0.00;;;;;;;16.60;69.92;98665.94;5037803;28;20048;-63
2022/07/19 03:47:49;;;;;;;0.00;0.00;;;;;;;16.63;69.98;98666.53;5038041;28;20390;-64
2022/07/19 03:50:17;;;;;;;0.00;0.00;;;;;;;16.72;69.78;98670.25;5037790;28;20049;-64
2022/07/19 03:52:44;;;;;;;0.00;0.00;;;;;;;16.78;69.66;98667.97;5037579;28;20048;-64
2022/07/19 03:55:11;;;;;;;0.00;0.00;;;;;;;16.82;69.45;98679.22;5037762;28;20429;-64
2022/07/19 03:57:41;;;;;;;0.00;0.00;;;;;;;16.88;69.25;98678.72;5037603;28;20080;-64
2022/07/19 04:00:09;;;;;;;0.00;0.00;;;;;;;16.94;69.24;98675.56;5037508;28;20071;-64
2022/07/19 04:02:39;;;;;;;0.00;0.00;;;;;;;16.99;69.13;98681.38;5037717;28;20056;-64
2022/07/19 04:05:08;;;;;;;0.00;0.00;;;;;;;17.01;69.59;98666.19;5037622;28;20053;-64
2022/07/19 04:07:36;;;;;;;0.00;0.00;;;;;;;17.06;69.50;98667.50;5037400;28;20068;-64
2022/07/19 04:10:04;;;;;;;0.00;0.00;;;;;;;17.12;69.67;98668.81;5037807;28;20052;-63
2022/07/19 04:12:31;;;;;;;0.00;0.00;;;;;;;17.15;69.63;98668.56;5037519;28;20045;-63
2022/07/19 04:15:01;;;;;;;0.00;0.00;;;;;;;17.19;69.77;98662.03;5037513;28;20061;-63
2022/07/19 04:17:29;;;;;;;0.00;0.00;;;;;;;17.29;69.36;98665.66;5037199;28;20099;-63
2022/07/19 04:19:56;;;;;;;0.00;0.00;;;;;;;17.35;68.58;98665.13;5037156;28;20052;-63
2022/07/19 04:22:25;;;;;;;0.00;0.00;;;;;;;17.46;68.28;98667.75;5037308;28;20080;-63
2022/07/19 04:24:52;;;;;;;0.00;0.00;;;;;;;17.53;68.11;98664.47;5037441;28;20081;-62
2022/07/19 04:27:19;;;;;;;0.00;0.00;;;;;;;17.54;68.35;98660.84;5037160;28;20045;-63
2022/07/19 04:29:47;;;;;;;0.00;0.00;;;;;;;17.57;68.14;98665.91;5037079;28;20057;-62
2022/07/19 04:32:16;;;;;;;0.00;0.00;;;;;;;17.64;68.57;98656.47;5036901;28;20443;-63
2022/07/19 04:34:43;;;;;;;0.00;0.00;;;;;;;17.77;67.64;98658.94;5037364;28;20060;-63
2022/07/19 04:37:11;;;;;;;0.00;0.00;;;;;;;17.88;67.94;98660.75;5036894;28;20045;-63
2022/07/19 04:39:38;;;;;;;0.00;0.00;;;;;;;18.02;67.62;98655.09;5037128;28;20042;-63
2022/07/19 04:42:06;;;;;;;0.00;0.00;;;;;;;18.16;67.73;98660.94;5036748;28;20037;-62
2022/07/19 04:44:34;;;;;;;0.00;0.00;;;;;;;18.77;66.45;98646.72;5037284;28;20084;-62
2022/07/19 04:47:02;;;;;;;0.00;0.00;;;;;;;19.17;64.72;98644.03;5036992;28;20041;-62
2022/07/19 04:49:30;;;;;;;0.00;0.00;;;;;;;19.82;63.46;98644.28;5037065;28;20437;-62
2022/07/19 04:51:58;;;;;;;0.00;0.00;;;;;;;19.92;63.06;98632.59;5036679;28;20054;-62
2022/07/19 04:54:25;;;;;;;0.00;0.00;;;;;;;20.40;62.30;98635.19;5037133;28;20050;-62
2022/07/19 04:56:53;;;;;;;0.00;0.00;;;;;;;20.60;61.42;98643.00;5036677;28;20341;-62
2022/07/19 04:59:20;;;;;;;0.00;0.00;;;;;;;20.53;61.23;98639.22;5036755;28;20441;-62
2022/07/19 05:01:48;;;;;;;0.00;0.00;;;;;;;20.57;61.31;98647.81;5036689;28;20072;-62
2022/07/19 05:04:15;;;;;;;0.00;0.00;;;;;;;20.39;61.47;98645.06;5036885;28;20064;-62
2022/07/19 05:06:44;;;;;;;0.00;0.00;;;;;;;20.38;62.13;98648.69;5036607;28;20053;-62
2022/07/19 05:09:12;;;;;;;0.00;0.00;;;;;;;20.46;62.35;98645.31;5036615;28;20047;-62
2022/07/19 05:11:40;;;;;;;0.00;0.00;;;;;;;20.33;62.38;98650.13;5036440;28;20140;-62
2022/07/19 05:14:07;;;;;;;0.00;0.00;;;;;;;20.29;62.86;98643.38;5036464;28;20041;-62
2022/07/19 05:16:34;;;;;;;0.00;0.00;;;;;;;20.30;62.58;98645.09;5036520;28;20046;-62
2022/07/19 05:19:02;;;;;;;0.00;0.00;;;;;;;20.38;62.19;98642.53;5036737;28;20132;-63
2022/07/19 05:21:29;;;;;;;0.00;0.00;;;;;;;20.48;62.34;98641.50;5036412;28;20049;-62
2022/07/19 05:23:58;;;;;;;0.00;0.00;;;;;;;20.61;61.53;98634.00;5036257;28;20349;-62
2022/07/19 05:26:26;;;;;;;0.00;0.00;;;;;;;20.64;61.68;98641.72;5036293;28;20041;-62
2022/07/19 05:28:53;;;;;;;0.00;0.00;;;;;;;20.71;62.46;98640.13;5039329;28;20049;-62
2022/07/19 05:31:21;;;;;;;0.00;0.00;;;;;;;20.68;61.59;98648.47;5040372;28;20084;-62
2022/07/19 05:33:48;;;;;;;0.00;0.00;;;;;;;20.75;61.32;98638.84;5038892;28;20167;-62
2022/07/19 05:36:16;;;;;;;0.00;0.00;;;;;;;20.71;61.08;98642.81;5040541;28;20091;-62
2022/07/19 05:38:43;;;;;;;0.00;0.00;;;;;;;20.60;61.44;98640.31;5040281;28;20056;-62
2022/07/19 05:41:12;;;;;;;0.00;0.00;;;;;;;20.53;61.34;98638.41;5040120;28;20115;-63
2022/07/19 05:43:40;;;;;;;0.00;0.00;;;;;;;20.49;62.31;98640.50;5040201;28;20033;-63
2022/07/19 05:46:08;;;;;;;0.00;0.00;;;;;;;20.49;62.49;98645.84;5040188;28;20041;-62
2022/07/19 05:48:35;;;;;;;0.00;0.00;;;;;;;20.51;63.48;98645.69;5040121;28;20041;-62
2022/07/19 05:51:05;;;;;;;0.00;0.00;;;;;;;20.56;64.13;98648.81;5041224;28;20445;-61
2022/07/19 05:53:33;;;;;;;0.00;0.00;;;;;;;20.57;63.61;98642.47;5047037;28;20091;-62
2022/07/19 05:56:01;;;;;;;0.00;0.00;;;;;;;20.59;63.63;98644.00;5055278;28;20033;-63
2022/07/19 05:58:31;;;;;;;0.00;0.00;;;;;;;20.66;63.64;98644.25;5051220;28;20049;-60
2022/07/19 06:03:44;;;;;;;0.00;0.00;;;;;;;20.76;63.51;98639.72;5045374;28;20064;-61
2022/07/19 06:06:19;;;;;;;0.00;0.00;;;;;;;20.73;62.61;98640.00;5045712;28;20053;-62
2022/07/19 06:08:47;;;;;;;0.00;0.00;;;;;;;20.78;62.63;98633.22;5050936;28;20444;-61
2022/07/19 06:11:17;;;;;;;0.00;0.00;;;;;;;20.87;61.95;98636.00;5047972;28;20041;-62
2022/07/19 06:13:47;;;;;;;0.00;0.00;;;;;;;20.94;62.06;98639.78;5047824;28;20037;-61
2022/07/19 06:16:16;;;;;;;0.00;0.00;;;;;;;21.07;62.67;98634.94;5048178;28;20053;-62
2022/07/19 06:18:45;;;;;;;0.00;0.00;;;;;;;21.10;61.65;98626.63;5055656;28;20057;-63
2022/07/19 06:21:15;;;;;;;0.00;0.00;;;;;;;21.22;61.34;98636.13;5048112;28;20414;-62
2022/07/19 06:23:43;;;;;;;0.00;0.00;;;;;;;21.36;61.47;98641.78;5046413;28;20353;-62
2022/07/19 06:26:12;;;;;;;0.00;0.00;;;;;;;21.53;60.55;98627.59;5047307;28;20050;-62
2022/07/19 06:28:40;;;;;;;0.00;0.00;;;;;;;;;;5043929;28;20041;-62
2022/07/19 06:31:09;;;;;;;0.00;0.00;;;;;;;22.04;58.74;98630.44;5047688;28;20124;-61
2022/07/19 06:33:37;;;;;;;0.00;0.00;;;;;;;22.24;59.27;98625.72;5047058;28;20049;-61
2022/07/19 06:36:05;;;;;;;0.00;0.00;;;;;;;22.21;59.05;98618.00;5046574;28;20052;-61
2022/07/19 06:38:33;;;;;;;0.00;0.00;;;;;;;22.06;59.33;98630.28;5048995;28;20494;-63
2022/07/19 06:41:00;;;;;;;0.00;0.00;;;;;;;21.89;59.61;98633.81;5048235;28;20041;-61
2022/07/19 06:43:28;;;;;;;0.00;0.00;;;;;;;21.78;59.82;98634.91;5048705;28;20052;-63
2022/07/19 06:45:56;;;;;;;0.00;0.00;;;;;;;21.89;60.04;98640.03;5048007;28;20119;-62
2022/07/19 06:48:25;;;;;;;0.00;0.00;;;;;;;22.04;59.63;98634.94;5048999;28;20045;-61
2022/07/19 06:50:53;;;;;;;0.00;0.00;;;;;;;22.10;61.30;98639.69;5042228;28;20045;-61
2022/07/19 06:53:21;;;;;;;0.00;0.00;;;;;;;22.15;60.06;98632.00;5043053;28;20060;-62
2022/07/19 06:55:48;;;;;;;0.00;0.00;;;;;;;22.25;60.82;98625.56;5045334;28;20116;-62
2022/07/19 06:58:16;;;;;;;0.00;0.00;;;;;;;22.31;61.63;98637.50;5045583;28;20041;-62
2022/07/19 07:00:44;;;;;;;0.00;0.00;;;;;;;22.29;60.33;98621.56;5052701;28;20052;-62
2022/07/19 07:03:11;;;;;;;0.00;0.00;;;;;;;22.30;59.42;98622.41;5053689;28;20049;-63
2022/07/19 07:05:40;;;;;;;0.00;0.00;;;;;;;22.68;59.28;98627.38;5048616;28;20068;-62
2022/07/19 07:08:08;;;;;;;0.00;0.00;;;;;;;23.10;58.88;98620.19;5050165;28;20383;-62
2022/07/19 07:10:35;;;;;;;0.00;0.00;;;;;;;23.62;59.04;98621.66;5046998;28;20091;-62
2022/07/19 07:13:03;;;;;;;0.00;0.00;;;;;;;24.26;56.17;98612.81;5058493;28;20123;-62
2022/07/19 07:15:31;;;;;;;0.00;0.00;;;;;;;24.72;54.04;98609.34;5058518;28;20556;-62
2022/07/19 07:17:59;;;;;;;0.00;0.00;;;;;;;24.68;53.09;98608.03;5056379;28;20049;-63
2022/07/19 07:20:26;;;;;;;0.00;0.00;;;;;;;24.54;53.17;98611.41;5052722;28;20429;-62
2022/07/19 07:22:55;;;;;;;0.00;0.00;;;;;;;24.60;54.60;98608.06;5050627;28;20048;-62
2022/07/19 07:25:23;;;;;;;0.00;0.00;;;;;;;24.76;53.50;98613.38;5056568;28;20332;-62
2022/07/19 07:27:50;;;;;;;0.00;0.00;;;;;;;24.85;54.76;98609.66;5056207;28;20256;-62
2022/07/19 07:30:18;;;;;;;0.00;0.00;;;;;;;24.94;53.47;98609.47;5057022;28;20045;-62
2022/07/19 07:32:45;;;;;;;0.00;0.00;;;;;;;24.93;54.25;98607.81;5058259;28;20132;-62
2022/07/19 07:35:14;;;;;;;0.00;0.00;;;;;;;24.83;53.30;98622.44;5058149;28;20484;-62
2022/07/19 07:37:42;;;;;;;0.00;0.00;;;;;;;24.83;53.69;98612.50;5057853;28;20468;-62
2022/07/19 07:40:12;;;;;;;0.00;0.00;;;;;;;24.93;53.65;98615.88;5056730;28;20041;-62
2022/07/19 07:42:39;;;;;;;0.00;0.00;;;;;;;25.02;54.25;98611.28;5056305;28;20491;-62
2022/07/19 07:45:09;;;;;;;0.00;0.00;;;;;;;25.07;53.77;98619.69;5055982;28;20107;-63
2022/07/19 07:47:37;;;;;;;0.00;0.00;;;;;;;25.06;54.12;98618.03;5055659;28;20435;-62
2022/07/19 07:50:06;;;;;;;0.00;0.00;;;;;;;25.12;54.03;98626.22;5056200;28;20044;-62
2022/07/19 07:52:33;;;;;;;0.00;0.00;;;;;;;25.22;53.24;98623.31;5056864;28;20067;-62
2022/07/19 07:55:01;;;;;;;0.00;0.00;;;;;;;25.29;53.11;98627.00;5057173;28;20041;-62
2022/07/19 07:57:30;;;;;;;0.00;0.00;;;;;;;25.34;53.67;98621.91;5057510;28;20045;-62
2022/07/19 07:59:57;;;;;;;0.00;0.00;;;;;;;25.41;53.37;98621.03;5057644;28;20041;-63
2022/07/19 08:02:24;;;;;;;0.00;0.00;;;;;;;25.43;53.45;98621.66;5054852;28;20043;-62
2022/07/19 08:04:52;;;;;;;0.00;0.00;;;;;;;25.30;52.56;98628.66;5057347;28;20041;-62
2022/07/19 08:07:20;;;;;;;0.00;0.00;;;;;;;25.38;52.74;98634.84;5056857;28;20344;-62
2022/07/19 08:09:47;;;;;;;0.00;0.00;;;;;;;25.33;52.85;98629.16;5057124;28;20471;-62
2022/07/19 08:12:15;;;;;;;0.00;0.00;;;;;;;25.31;53.75;98631.19;5057132;28;20099;-62
2022/07/19 08:14:44;;;;;;;0.00;0.00;;;;;;;25.37;53.52;98633.19;5057025;28;20045;-62
2022/07/19 08:17:21;;;;;;;0.00;0.00;;;;;;;25.35;53.23;98635.19;5057506;28;20044;-62
2022/07/19 08:19:48;;;;;;;0.00;0.00;;;;;;;25.33;52.65;98633.69;5057198;28;20044;-62
2022/07/19 08:22:16;;;;;;;0.00;0.00;;;;;;;25.17;54.39;98631.09;5056842;28;20056;-62
2022/07/19 08:24:44;;;;;;;0.00;0.00;;;;;;;25.30;53.75;98629.50;5055819;28;20132;-62
2022/07/19 08:27:11;;;;;;;0.00;0.00;;;;;;;25.27;52.33;98631.69;5056640;28;20048;-63
2022/07/19 08:29:39;;;;;;;0.00;0.00;;;;;;;25.20;52.08;98628.88;5056509;28;20045;-62
2022/07/19 08:32:09;;;;;;;0.00;0.00;;;;;;;25.34;52.21;98625.44;5055967;28;20099;-62
2022/07/19 08:34:37;;;;;;;0.00;0.00;;;;;;;25.57;52.08;98629.03;5055206;28;20043;-62
2022/07/19 08:37:05;;;;;;;0.00;0.00;;;;;;;25.70;53.28;98629.31;5054466;28;20041;-62
2022/07/19 08:39:32;;;;;;;0.00;0.00;;;;;;;25.80;53.49;98619.09;5055354;28;20357;-62
2022/07/19 08:42:00;;;;;;;0.00;0.00;;;;;;;25.80;50.57;98629.06;5054924;28;20053;-62
2022/07/19 08:44:29;;;;;;;0.00;0.00;;;;;;;25.61;49.75;98624.97;5054880;28;20044;-62
2022/07/19 08:46:57;;;;;;;0.00;0.00;;;;;;;25.53;49.50;98622.31;5049447;28;20050;-62
2022/07/19 08:49:26;;;;;;;0.00;0.00;;;;;;;25.65;51.34;98615.50;5034882;28;20037;-63
2022/07/19 08:51:54;;;;;;;0.00;0.00;;;;;;;26.00;52.17;98616.75;5035374;28;20148;-62
2022/07/19 08:54:21;;;;;;;0.00;0.00;;;;;;;26.30;52.76;98605.88;5035235;28;20385;-62
2022/07/19 08:59:34;;;;;;;0.00;0.00;;;;;;;26.44;46.60;98607.78;5047367;28;20505;-62
2022/07/19 09:02:02;;;;;;;0.00;0.00;;;;;;;26.55;47.13;98604.63;5040208;28;20547;-62
2022/07/19 09:04:31;;;;;;;0.00;0.00;;;;;;;26.76;48.00;98600.38;5040102;28;20048;-62
2022/07/19 09:07:00;;;;;;;0.00;0.00;;;;;;;26.89;47.01;98595.97;5041681;28;20044;-63
2022/07/19 09:09:28;;;;;;;0.00;0.00;;;;;;;26.99;47.11;98596.53;5040141;28;20389;-62
2022/07/19 09:11:58;;;;;;;0.00;0.00;;;;;;;26.98;46.57;98596.72;5055182;28;20048;-62
2022/07/19 09:14:29;;;;;;;0.00;0.00;;;;;;;27.08;45.62;98592.69;5054519;28;20425;-62
2022/07/19 09:17:02;;;;;;;0.00;0.00;;;;;;;27.13;43.84;98587.56;5055104;28;20049;-62
2022/07/19 09:19:32;;;;;;;0.00;0.00;;;;;;;27.07;45.25;98587.47;5052437;28;20136;-61
2022/07/19 09:22:03;;;;;;;0.00;0.00;;;;;;;26.82;44.45;98597.75;5042277;28;20076;-62
2022/07/19 09:24:33;;;;;;;0.00;0.00;;;;;;;26.76;44.35;98590.41;5041240;28;20053;-64
2022/07/19 09:27:03;;;;;;;0.00;0.00;;;;;;;26.72;45.19;98604.47;5045702;28;20052;-62
2022/07/19 09:29:35;;;;;;;0.00;0.00;;;;;;;26.86;46.12;98600.94;5050015;28;20107;-61
2022/07/19 09:32:06;;;;;;;0.00;0.00;;;;;;;26.85;46.53;98599.25;5049450;28;20099;-63
2022/07/19 09:34:42;;;;;;;0.00;0.00;;;;;;;26.73;44.79;98598.03;5039106;28;20072;-62
2022/07/19 09:37:16;;;;;;;0.00;0.00;;;;;;;26.63;43.89;98593.72;5051905;28;20045;-63
2022/07/19 09:39:45;;;;;;;;;;;;;;;26.75;44.46;98593.28;5054924;28;20052;-63
2022/07/19 09:42:13;;;;;;;0.00;0.00;;;;;;;26.92;45.49;98586.66;5049555;28;19928;-61
2022/07/19 09:44:41;;;;;;;0.00;0.00;;;;;;;26.99;43.86;98584.88;5048401;28;20037;-61
2022/07/19 09:47:09;;;;;;;0.00;0.00;;;;;;;26.94;46.43;98590.03;5048089;28;20064;-61
2022/07/19 09:49:38;;;;;;;0.00;0.00;;;;;;;26.96;44.31;98588.78;5047253;28;20072;-61
2022/07/19 09:52:09;;;;;;;0.00;0.00;;;;;;;26.86;44.19;98580.13;5045977;28;20135;-63
2022/07/19 09:54:39;;;;;;;0.00;0.00;;;;;;;26.94;44.95;98576.50;5049154;28;20348;-63
2022/07/19 09:57:08;;;;;;;0.00;0.00;;;;;;;26.97;44.91;98584.25;5050526;28;20059;-62
2022/07/19 09:59:38;;;;;;;0.00;0.00;;;;;;;27.00;44.26;98576.59;5052146;28;20056;-62
2022/07/19 10:02:06;;;;;;;0.00;0.00;;;;;;;26.91;45.14;98576.88;5055559;28;20041;-61
2022/07/19 10:04:35;;;;;;;0.00;0.00;;;;;;;26.97;45.98;98571.56;5053049;28;20045;-62
2022/07/19 10:07:04;;;;;;;0.00;0.00;;;;;;;27.15;43.78;98571.19;5055959;28;20049;-61
2022/07/19 10:09:32;;;;;;;0.00;0.00;;;;;;;27.15;43.90;98563.88;5050488;28;20057;-62
2022/07/19 10:12:00;;;;;;;0.00;0.00;;;;;;;27.34;45.37;98562.50;5054926;28;20310;-62
2022/07/19 10:14:30;;;;;;;0.00;0.00;;;;;;;27.32;44.91;98559.13;5056802;28;20057;-61
2022/07/19 10:17:25;;;;;;;0.00;0.00;;;;;;;27.20;44.95;98564.19;5053482;28;20065;-61
2022/07/19 10:19:56;;;;;;;0.00;0.00;;;;;;;27.04;44.66;98571.66;5054456;28;20325;-62
2022/07/19 10:22:26;;;;;;;0.00;0.00;;;;;;;27.04;45.79;98561.69;5056026;28;20504;-62
2022/07/19 10:24:57;;;;;;;0.00;0.00;;;;;;;27.18;45.42;98563.50;5053035;28;20057;-62
2022/07/19 10:27:40;;;;;;;0.00;0.00;;;;;;;27.26;44.86;98565.28;5054707;28;20344;-62
2022/07/19 10:30:26;;;;;;;0.00;0.00;;;;;;;27.27;45.25;98562.38;5049267;28;20099;-61
2022/07/19 10:32:59;;;;;;;0.00;0.00;;;;;;;27.28;44.92;98563.22;5049215;28;20048;-63
2022/07/19 10:35:31;;;;;;;0.00;0.00;;;;;;;27.40;46.49;98556.28;5058095;28;20429;-61
2022/07/19 10:38:10;;;;;;;0.10;0.00;;;;;;;27.70;46.39;98552.47;5058609;28;20340;-62
2022/07/19 10:40:40;;;;;;;0.00;0.00;;;;;;;27.86;46.92;98554.94;5051262;28;20380;-62
2022/07/19 10:43:11;;;;;;;0.00;0.00;;;;;;;27.90;45.77;98548.09;5052364;28;20098;-61
2022/07/19 10:45:40;;;;;;;0.00;0.00;;;;;;;27.70;44.54;98549.75;5058740;28;20052;-62
2022/07/19 10:48:13;;;;;;;0.00;0.00;;;;;;;27.60;43.22;98549.25;5052656;28;20120;-61
2022/07/19 10:50:52;;;;;;;0.00;0.00;;;;;;;27.53;42.64;98545.63;5050403;28;20041;-62
2022/07/19 10:54:02;;;;;;;0.00;0.00;;;;;;;27.57;43.25;98546.91;5050223;28;20041;-62
2022/07/19 10:56:37;;;;;;;0.00;0.00;;;;;;;27.62;43.67;98541.75;4990637;28;20053;-61
2022/07/19 10:59:07;;;;;;;0.00;0.00;;;;;;;27.65;42.82;98554.91;4997842;28;20046;-62
2022/07/19 11:01:36;;;;;;;0.00;0.00;;;;;;;27.76;42.68;98546.25;4979941;28;20055;-63
2022/07/19 11:04:23;;;;;;;0.00;0.00;;;;;;;28.02;43.79;98531.13;4968358;28;20137;-62
2022/07/19 11:06:52;;;;;;;0.00;0.00;;;;;;;28.14;44.34;98534.97;4961931;28;20058;-62
2022/07/19 11:09:26;;;;;;;0.00;0.00;;;;;;;28.12;42.62;98534.34;4961309;28;20066;-62
2022/07/19 11:11:54;;;;;;;0.00;0.00;;;;;;;27.97;41.96;98533.59;4959324;28;20362;-61
2022/07/19 11:14:23;;;;;;;0.00;0.00;;;;;;;28.04;43.45;98530.94;4959979;28;20046;-60
2022/07/19 11:17:01;;;;;;;0.00;0.00;;;;;;;28.32;44.83;98534.44;4959059;28;20047;-61
2022/07/19 11:19:29;;;;;;;0.00;0.00;;;;;;;28.32;43.70;98529.88;4951141;28;20057;-59
2022/07/19 11:22:02;;;;;;;0.00;0.00;;;;;;;28.35;43.70;98531.34;4963881;28;20155;-59
2022/07/19 11:24:29;;;;;;;0.00;0.00;;;;;;;28.34;43.29;98532.41;4971609;28;20391;-60
2022/07/19 11:27:03;;;;;;;0.00;0.00;;;;;;;28.32;43.65;98531.75;4955017;28;20055;-60
2022/07/19 11:29:53;;;;;;;0.00;0.00;;;;;;;28.24;42.49;98524.63;4965692;28;20057;-59
2022/07/19 11:32:21;;;;;;;0.00;0.00;;;;;;;28.30;43.31;98523.00;5013975;28;20111;-60
2022/07/19 11:34:54;;;;;;;0.00;0.00;;;;;;;28.31;40.96;98516.56;5037249;28;20033;-59
2022/07/19 11:37:27;;;;;;;0.00;0.00;;;;;;;28.14;41.14;98521.44;5039905;28;20049;-59
2022/07/19 11:39:57;;;;;;;0.00;0.00;;;;;;;28.19;42.19;98518.16;5053117;28;20045;-59
2022/07/19 11:42:37;;;;;;;0.00;0.00;;;;;;;28.27;42.59;98516.13;5056533;28;20332;-59
2022/07/19 11:45:14;;;;;;;0.00;0.00;;;;;;;28.32;41.82;98505.53;5045757;28;20041;-59
2022/07/19 11:47:42;;;;;;;0.00;0.00;;;;;;;28.37;41.85;98507.66;5045730;28;20034;-59
2022/07/19 11:50:15;;;;;;;0.00;0.00;;;;;;;28.38;40.93;98509.31;5049620;28;20095;-58
2022/07/19 11:52:50;;;;;;;0.00;0.00;;;;;;;28.35;41.70;98507.84;5046354;28;20061;-59